Airfield :
LOGIN :

Register | Disclaimer

   EN    FR    IT 

 










Legend :    VFR   Marginal VFR   IFR   Intensive IFR   Very Intensive IFR
Visi :
Ceiling :
>= 8 km
>= 3000ft
5 to 8 km
1000 to 3000 ft
1500m to 5 km
500 to 1000 ft
800 to 1500m
200 to 500 ft
< 800m
< 200 ft
Symbols :   Thunderstorms  Fog  Heavy snow  Heavy precipitations  Wind > 20 kt
SIGMETs :     Misc.  Thunderstorms  Icing  Turbulence  Mountain Waves  Volcanic Ashes







- Airport Elevation : 141 ft
- IATA code : SKS


EKSP - Srydstrup Vojens

CURRENT METAR :
  • 190950Z 13009KT CAVOK 02/00 Q1011 TEMPO 5000 BR BKN010

EXPIRED METARs :
  • 190920Z 14008KT CAVOK 02/00 Q1011 TEMPO 5000 BR BKN010 RMK SCT080 BKN100
  • 190850Z 13008KT CAVOK 02/00 Q1011 TEMPO 5000 BR BKN010 RMK SCT080 BKN100
  • 190820Z 13010KT CAVOK 02/00 Q1011 TEMPO 5000 BR BKN010
  • 190750Z 14011KT CAVOK 03/00 Q1011 TEMPO 5000 BR BKN010
  • 190720Z 13010KT 9999 FEW012 SCT100 BKN130 03/01 Q1011 TEMPO 5000 BR BKN010
  • 190650Z 13011KT 9999 FEW012 BKN110 BKN150 03/01 Q1011 TEMPO 5000 BR BKN010

TAF TAF EKSP
Valid from the 19 at 09:00 until the 20 at 06:00 UTC


190825Z 1909/2006 13015KT 9999 SCT012 BKN080
TEMPO 1909/1910 5000 BR BKN010
BECMG 1910/1913 4000 BR -RA BKN006
TEMPO 1913/2006 0800 FG BKN001
No reported NOTAMs for that airfield.



MET'MAP, your aeronautical weather chart ! - Copyright ORBIFLY December 2007 - Disclaimer

ORBIFLY MET'MAP TEAM :

Programming & Development : Alexandra Zaïnal
Concept & Development : Baudouin d'Aumeries
Co-Development & Prog : Marc-Olivier Méhu
Technical & hardware support : Manuel Goepfert

Contact : metmap@orbifly.com




SOURCES & CREDITS :

   NOAA